sensor_id;sensor_type;location;lat;lon;timestamp;pressure;altitude;pressure_sealevel;temperature;humidity
38912;BME280;28444;48.056;14.408;2023-04-20T00:00:39;97629.63;;;5.45;100.00
38912;BME280;28444;48.056;14.408;2023-04-20T00:03:26;97620.88;;;5.39;100.00
38912;BME280;28444;48.056;14.408;2023-04-20T00:06:14;97619.28;;;5.43;100.00
38912;BME280;28444;48.056;14.408;2023-04-20T00:09:01;97611.88;;;5.44;100.00
38912;BME280;28444;48.056;14.408;2023-04-20T00:11:48;97601.56;;;5.42;100.00
38912;BME280;28444;48.056;14.408;2023-04-20T00:14:36;97601.66;;;5.50;100.00
38912;BME280;28444;48.056;14.408;2023-04-20T00:17:22;97594.97;;;5.51;100.00
38912;BME280;28444;48.056;14.408;2023-04-20T00:20:10;97599.47;;;5.48;100.00
38912;BME280;28444;48.056;14.408;2023-04-20T00:22:58;97589.94;;;5.55;100.00
38912;BME280;28444;48.056;14.408;2023-04-20T00:25:45;97597.91;;;5.53;100.00
38912;BME280;28444;48.056;14.408;2023-04-20T00:28:35;97599.72;;;5.71;100.00
38912;BME280;28444;48.056;14.408;2023-04-20T00:31:22;97599.72;;;5.71;100.00
38912;BME280;28444;48.056;14.408;2023-04-20T00:34:09;97598.47;;;5.59;100.00
38912;BME280;28444;48.056;14.408;2023-04-20T00:36:56;97590.16;;;5.57;100.00
38912;BME280;28444;48.056;14.408;2023-04-20T00:39:43;97587.88;;;5.48;100.00
38912;BME280;28444;48.056;14.408;2023-04-20T00:42:30;97597.91;;;5.40;100.00
38912;BME280;28444;48.056;14.408;2023-04-20T00:45:17;97586.75;;;5.43;100.00
38912;BME280;28444;48.056;14.408;2023-04-20T00:48:05;97582.88;;;5.52;100.00
38912;BME280;28444;48.056;14.408;2023-04-20T00:50:52;97578.44;;;5.62;100.00
38912;BME280;28444;48.056;14.408;2023-04-20T00:53:39;97578.19;;;5.73;100.00
38912;BME280;28444;48.056;14.408;2023-04-20T00:56:26;97572.31;;;5.83;100.00
38912;BME280;28444;48.056;14.408;2023-04-20T00:59:14;97570.69;;;5.66;100.00
38912;BME280;28444;48.056;14.408;2023-04-20T01:02:01;97556.47;;;5.52;100.00
38912;BME280;28444;48.056;14.408;2023-04-20T01:04:48;97557.53;;;5.49;100.00
38912;BME280;28444;48.056;14.408;2023-04-20T01:07:35;97560.69;;;5.40;100.00
38912;BME280;28444;48.056;14.408;2023-04-20T01:10:22;97558.13;;;5.55;100.00
38912;BME280;28444;48.056;14.408;2023-04-20T01:13:09;97555.63;;;5.58;100.00
38912;BME280;28444;48.056;14.408;2023-04-20T01:15:57;97557.06;;;5.59;100.00
38912;BME280;28444;48.056;14.408;2023-04-20T01:18:47;97545.00;;;5.46;100.00
38912;BME280;28444;48.056;14.408;2023-04-20T01:21:35;97546.69;;;5.49;100.00
38912;BME280;28444;48.056;14.408;2023-04-20T01:24:22;97544.00;;;5.36;100.00
38912;BME280;28444;48.056;14.408;2023-04-20T01:27:09;97532.84;;;5.40;100.00
38912;BME280;28444;48.056;14.408;2023-04-20T01:29:56;97539.59;;;5.46;100.00
38912;BME280;28444;48.056;14.408;2023-04-20T01:32:43;97536.75;;;5.52;100.00
38912;BME280;28444;48.056;14.408;2023-04-20T01:35:30;97536.56;;;5.50;100.00
38912;BME280;28444;48.056;14.408;2023-04-20T01:38:21;97532.97;;;5.55;100.00
38912;BME280;28444;48.056;14.408;2023-04-20T01:41:08;97528.63;;;5.52;100.00
38912;BME280;28444;48.056;14.408;2023-04-20T01:43:55;97523.31;;;5.46;100.00
38912;BME280;28444;48.056;14.408;2023-04-20T01:46:42;97519.22;;;5.53;100.00
38912;BME280;28444;48.056;14.408;2023-04-20T01:49:30;97513.06;;;5.52;100.00
38912;BME280;28444;48.056;14.408;2023-04-20T01:52:17;97513.88;;;5.61;100.00
38912;BME280;28444;48.056;14.408;2023-04-20T01:55:04;97509.88;;;5.62;100.00
38912;BME280;28444;48.056;14.408;2023-04-20T01:57:51;97513.38;;;5.70;100.00
38912;BME280;28444;48.056;14.408;2023-04-20T02:00:38;97515.84;;;5.60;100.00
38912;BME280;28444;48.056;14.408;2023-04-20T02:03:25;97514.38;;;5.59;100.00
38912;BME280;28444;48.056;14.408;2023-04-20T02:06:13;97514.38;;;5.38;100.00
38912;BME280;28444;48.056;14.408;2023-04-20T02:09:00;97502.47;;;5.41;100.00
38912;BME280;28444;48.056;14.408;2023-04-20T02:11:47;97511.19;;;5.47;100.00
38912;BME280;28444;48.056;14.408;2023-04-20T02:14:34;97506.94;;;5.52;100.00
38912;BME280;28444;48.056;14.408;2023-04-20T02:17:21;97502.16;;;5.45;100.00
38912;BME280;28444;48.056;14.408;2023-04-20T02:20:09;97494.13;;;5.39;100.00
38912;BME280;28444;48.056;14.408;2023-04-20T02:22:56;97495.31;;;5.51;100.00
38912;BME280;28444;48.056;14.408;2023-04-20T02:25:43;97495.31;;;5.51;100.00
38912;BME280;28444;48.056;14.408;2023-04-20T02:28:30;97494.59;;;5.51;100.00
38912;BME280;28444;48.056;14.408;2023-04-20T02:31:17;97497.97;;;5.44;100.00
38912;BME280;28444;48.056;14.408;2023-04-20T02:34:04;97495.31;;;5.51;100.00
38912;BME280;28444;48.056;14.408;2023-04-20T02:36:54;97493.41;;;5.39;100.00
38912;BME280;28444;48.056;14.408;2023-04-20T02:39:42;97492.03;;;5.45;100.00
38912;BME280;28444;48.056;14.408;2023-04-20T02:42:29;97486.41;;;5.43;100.00
38912;BME280;28444;48.056;14.408;2023-04-20T02:45:16;97483.69;;;5.43;100.00
38912;BME280;28444;48.056;14.408;2023-04-20T02:48:03;97485.66;;;5.43;100.00
38912;BME280;28444;48.056;14.408;2023-04-20T02:50:54;97480.47;;;5.45;100.00
38912;BME280;28444;48.056;14.408;2023-04-20T02:53:41;97472.56;;;5.54;100.00
38912;BME280;28444;48.056;14.408;2023-04-20T02:56:28;97478.22;;;5.57;100.00
38912;BME280;28444;48.056;14.408;2023-04-20T02:59:15;97473.16;;;5.61;100.00
38912;BME280;28444;48.056;14.408;2023-04-20T03:02:02;97470.97;;;5.59;100.00
38912;BME280;28444;48.056;14.408;2023-04-20T03:04:49;97464.31;;;5.60;100.00
38912;BME280;28444;48.056;14.408;2023-04-20T03:07:36;97470.41;;;5.53;100.00
38912;BME280;28444;48.056;14.408;2023-04-20T03:10:23;97463.78;;;5.62;100.00
38912;BME280;28444;48.056;14.408;2023-04-20T03:13:10;97465.31;;;5.49;100.00
38912;BME280;28444;48.056;14.408;2023-04-20T03:15:57;97466.03;;;5.50;100.00
38912;BME280;28444;48.056;14.408;2023-04-20T03:18:44;97459.41;;;5.38;100.00
38912;BME280;28444;48.056;14.408;2023-04-20T03:21:31;97464.63;;;5.36;100.00
38912;BME280;28444;48.056;14.408;2023-04-20T03:24:18;97451.47;;;5.40;100.00
38912;BME280;28444;48.056;14.408;2023-04-20T03:27:06;97451.28;;;5.38;100.00
38912;BME280;28444;48.056;14.408;2023-04-20T03:29:52;97454.13;;;5.32;100.00
38912;BME280;28444;48.056;14.408;2023-04-20T03:32:40;97449.81;;;5.37;100.00
38912;BME280;28444;48.056;14.408;2023-04-20T03:35:27;97444.94;;;5.56;100.00
38912;BME280;28444;48.056;14.408;2023-04-20T03:38:14;97442.00;;;5.54;100.00
38912;BME280;28444;48.056;14.408;2023-04-20T03:41:01;97448.31;;;5.49;100.00
38912;BME280;28444;48.056;14.408;2023-04-20T03:43:48;97443.44;;;5.55;100.00
38912;BME280;28444;48.056;14.408;2023-04-20T03:46:35;97440.94;;;5.57;100.00
38912;BME280;28444;48.056;14.408;2023-04-20T03:49:23;97446.56;;;5.59;100.00
38912;BME280;28444;48.056;14.408;2023-04-20T03:52:11;97451.66;;;5.63;100.00
38912;BME280;28444;48.056;14.408;2023-04-20T03:54:58;97444.38;;;5.58;100.00
38912;BME280;28444;48.056;14.408;2023-04-20T03:57:44;97443.53;;;5.42;100.00
38912;BME280;28444;48.056;14.408;2023-04-20T04:00:31;97441.28;;;5.53;100.00
38912;BME280;28444;48.056;14.408;2023-04-20T04:03:18;97446.38;;;5.57;100.00
38912;BME280;28444;48.056;14.408;2023-04-20T04:06:06;97437.03;;;5.66;100.00
38912;BME280;28444;48.056;14.408;2023-04-20T04:08:53;97441.94;;;5.67;100.00
38912;BME280;28444;48.056;14.408;2023-04-20T04:11:40;97436.47;;;5.60;100.00
38912;BME280;28444;48.056;14.408;2023-04-20T04:14:28;97445.44;;;5.54;100.00
38912;BME280;28444;48.056;14.408;2023-04-20T04:17:15;97444.00;;;5.53;100.00
38912;BME280;28444;48.056;14.408;2023-04-20T04:20:03;97437.31;;;5.54;100.00
38912;BME280;28444;48.056;14.408;2023-04-20T04:22:53;97431.94;;;5.62;100.00
38912;BME280;28444;48.056;14.408;2023-04-20T04:25:40;97432.31;;;5.66;100.00
38912;BME280;28444;48.056;14.408;2023-04-20T04:28:28;97433.78;;;5.67;100.00
38912;BME280;28444;48.056;14.408;2023-04-20T04:31:15;97440.00;;;5.75;100.00
38912;BME280;28444;48.056;14.408;2023-04-20T04:34:04;97440.94;;;5.78;100.00
38912;BME280;28444;48.056;14.408;2023-04-20T04:36:50;97431.13;;;5.75;100.00
38912;BME280;28444;48.056;14.408;2023-04-20T04:39:38;97440.78;;;5.84;100.00
38912;BME280;28444;48.056;14.408;2023-04-20T04:42:25;97429.97;;;5.91;100.00
38912;BME280;28444;48.056;14.408;2023-04-20T04:45:13;97433.09;;;5.95;100.00
38912;BME280;28444;48.056;14.408;2023-04-20T04:48:00;97430.38;;;5.95;100.00
38912;BME280;28444;48.056;14.408;2023-04-20T04:50:48;97437.28;;;5.96;100.00
38912;BME280;28444;48.056;14.408;2023-04-20T04:53:35;97441.81;;;6.01;100.00
38912;BME280;28444;48.056;14.408;2023-04-20T04:56:22;97445.59;;;5.98;100.00
38912;BME280;28444;48.056;14.408;2023-04-20T04:59:09;97446.75;;;6.03;100.00
38912;BME280;28444;48.056;14.408;2023-04-20T05:01:56;97442.16;;;5.98;100.00
38912;BME280;28444;48.056;14.408;2023-04-20T05:04:44;97446.75;;;6.03;100.00
38912;BME280;28444;48.056;14.408;2023-04-20T05:07:31;97453.06;;;6.06;100.00
38912;BME280;28444;48.056;14.408;2023-04-20T05:10:18;97445.09;;;6.00;100.00
38912;BME280;28444;48.056;14.408;2023-04-20T05:13:05;97447.63;;;6.06;100.00
38912;BME280;28444;48.056;14.408;2023-04-20T05:15:52;97447.63;;;6.06;100.00
38912;BME280;28444;48.056;14.408;2023-04-20T05:18:39;97451.75;;;5.99;100.00
38912;BME280;28444;48.056;14.408;2023-04-20T05:21:25;97455.75;;;5.98;100.00
38912;BME280;28444;48.056;14.408;2023-04-20T05:24:13;97446.78;;;6.11;100.00
38912;BME280;28444;48.056;14.408;2023-04-20T05:27:00;97450.00;;;6.09;100.00
38912;BME280;28444;48.056;14.408;2023-04-20T05:29:47;97447.34;;;6.17;100.00
38912;BME280;28444;48.056;14.408;2023-04-20T05:32:34;97449.38;;;6.24;100.00
38912;BME280;28444;48.056;14.408;2023-04-20T05:35:21;97452.25;;;6.18;100.00
38912;BME280;28444;48.056;14.408;2023-04-20T05:38:08;97441.91;;;6.17;100.00
38912;BME280;28444;48.056;14.408;2023-04-20T05:40:55;97439.19;;;6.17;100.00
38912;BME280;28444;48.056;14.408;2023-04-20T05:43:42;97443.38;;;6.18;100.00
38912;BME280;28444;48.056;14.408;2023-04-20T05:46:29;97440.66;;;6.18;100.00
38912;BME280;28444;48.056;14.408;2023-04-20T05:49:16;97441.88;;;6.09;100.00
38912;BME280;28444;48.056;14.408;2023-04-20T05:52:03;97449.28;;;6.09;100.00
38912;BME280;28444;48.056;14.408;2023-04-20T05:54:50;97452.56;;;6.07;100.00
38912;BME280;28444;48.056;14.408;2023-04-20T05:57:37;97447.94;;;5.94;100.00
38912;BME280;28444;48.056;14.408;2023-04-20T06:00:28;97443.16;;;5.87;100.00
38912;BME280;28444;48.056;14.408;2023-04-20T06:03:15;97454.09;;;5.95;100.00
38912;BME280;28444;48.056;14.408;2023-04-20T06:06:02;97456.78;;;5.95;100.00
38912;BME280;28444;48.056;14.408;2023-04-20T06:08:49;97450.84;;;5.75;100.00
38912;BME280;28444;48.056;14.408;2023-04-20T06:11:37;97457.25;;;5.86;100.00
38912;BME280;28444;48.056;14.408;2023-04-20T06:14:24;97455.06;;;5.84;100.00
38912;BME280;28444;48.056;14.408;2023-04-20T06:17:11;97457.00;;;5.76;100.00
38912;BME280;28444;48.056;14.408;2023-04-20T06:19:58;97454.13;;;5.74;100.00
38912;BME280;28444;48.056;14.408;2023-04-20T06:22:45;97447.03;;;5.71;100.00
38912;BME280;28444;48.056;14.408;2023-04-20T06:25:34;97451.25;;;5.79;100.00
38912;BME280;28444;48.056;14.408;2023-04-20T06:28:22;97453.22;;;5.79;100.00
38912;BME280;28444;48.056;14.408;2023-04-20T06:31:08;97454.94;;;5.90;100.00
38912;BME280;28444;48.056;14.408;2023-04-20T06:33:56;97463.41;;;5.86;100.00
38912;BME280;28444;48.056;14.408;2023-04-20T06:36:43;97464.53;;;5.91;100.00
38912;BME280;28444;48.056;14.408;2023-04-20T06:39:30;97465.69;;;5.74;100.00
38912;BME280;28444;48.056;14.408;2023-04-20T06:42:17;97467.97;;;5.91;100.00
38912;BME280;28444;48.056;14.408;2023-04-20T06:45:05;97463.25;;;5.92;100.00
38912;BME280;28444;48.056;14.408;2023-04-20T06:47:52;97465.06;;;5.89;100.00
38912;BME280;28444;48.056;14.408;2023-04-20T06:50:39;97466.06;;;5.99;99.82
38912;BME280;28444;48.056;14.408;2023-04-20T06:53:26;97477.13;;;6.01;100.00
38912;BME280;28444;48.056;14.408;2023-04-20T06:56:13;97466.47;;;6.03;99.84
38912;BME280;28444;48.056;14.408;2023-04-20T06:59:00;97459.91;;;5.99;99.94
38912;BME280;28444;48.056;14.408;2023-04-20T07:01:47;97459.00;;;5.96;100.00
38912;BME280;28444;48.056;14.408;2023-04-20T07:04:34;97448.69;;;6.02;100.00
38912;BME280;28444;48.056;14.408;2023-04-20T07:07:21;97453.88;;;6.14;100.00
38912;BME280;28444;48.056;14.408;2023-04-20T07:10:10;97458.03;;;6.15;99.06
38912;BME280;28444;48.056;14.408;2023-04-20T07:12:57;97453.13;;;6.13;99.99
38912;BME280;28444;48.056;14.408;2023-04-20T07:15:44;97465.75;;;6.03;98.88
38912;BME280;28444;48.056;14.408;2023-04-20T07:18:31;97459.03;;;6.04;100.00
38912;BME280;28444;48.056;14.408;2023-04-20T07:21:21;97446.28;;;6.20;100.00
38912;BME280;28444;48.056;14.408;2023-04-20T07:24:08;97453.44;;;6.10;99.75
38912;BME280;28444;48.056;14.408;2023-04-20T07:26:55;97462.94;;;6.24;99.87
38912;BME280;28444;48.056;14.408;2023-04-20T07:29:42;97456.28;;;6.25;98.36
38912;BME280;28444;48.056;14.408;2023-04-20T07:32:29;97453.63;;;6.40;98.68
38912;BME280;28444;48.056;14.408;2023-04-20T07:35:16;97455.78;;;6.34;98.51
38912;BME280;28444;48.056;14.408;2023-04-20T07:38:04;97453.81;;;6.42;98.36
38912;BME280;28444;48.056;14.408;2023-04-20T07:40:50;97445.38;;;6.54;98.34
38912;BME280;28444;48.056;14.408;2023-04-20T07:43:37;97455.84;;;6.49;96.64
38912;BME280;28444;48.056;14.408;2023-04-20T07:46:24;97455.13;;;6.49;96.16
38912;BME280;28444;48.056;14.408;2023-04-20T07:49:12;97454.91;;;6.39;98.25
38912;BME280;28444;48.056;14.408;2023-04-20T07:51:59;97458.81;;;6.31;97.84
38912;BME280;28444;48.056;14.408;2023-04-20T07:55:01;97452.28;;;6.26;97.60
38912;BME280;28444;48.056;14.408;2023-04-20T07:57:49;97451.94;;;6.30;97.98
38912;BME280;28444;48.056;14.408;2023-04-20T08:00:36;97459.00;;;6.25;100.00
38912;BME280;28444;48.056;14.408;2023-04-20T08:03:23;97458.88;;;6.38;98.99
38912;BME280;28444;48.056;14.408;2023-04-20T08:06:13;97457.63;;;6.39;98.27
38912;BME280;28444;48.056;14.408;2023-04-20T08:09:00;97453.88;;;6.50;98.53
38912;BME280;28444;48.056;14.408;2023-04-20T08:11:47;97441.75;;;6.59;96.83
38912;BME280;28444;48.056;14.408;2023-04-20T08:14:34;97447.47;;;6.84;96.47
38912;BME280;28444;48.056;14.408;2023-04-20T08:17:21;97448.22;;;6.92;96.00
38912;BME280;28444;48.056;14.408;2023-04-20T08:20:08;97436.44;;;6.97;95.53
38912;BME280;28444;48.056;14.408;2023-04-20T08:22:57;97434.25;;;6.95;96.06
38912;BME280;28444;48.056;14.408;2023-04-20T08:25:45;97434.81;;;7.02;96.31
38912;BME280;28444;48.056;14.408;2023-04-20T08:28:32;97425.91;;;6.93;95.03
38912;BME280;28444;48.056;14.408;2023-04-20T08:31:20;97434.81;;;7.02;96.20
38912;BME280;28444;48.056;14.408;2023-04-20T08:34:07;97431.41;;;7.16;96.52
38912;BME280;28444;48.056;14.408;2023-04-20T08:36:54;97426.53;;;7.30;95.92
38912;BME280;28444;48.056;14.408;2023-04-20T08:39:41;97419.63;;;7.37;94.71
38912;BME280;28444;48.056;14.408;2023-04-20T08:42:28;97412.22;;;7.60;95.14
38912;BME280;28444;48.056;14.408;2023-04-20T08:45:15;97408.75;;;7.60;93.92
38912;BME280;28444;48.056;14.408;2023-04-20T08:48:05;97404.94;;;7.63;94.87
38912;BME280;28444;48.056;14.408;2023-04-20T08:50:53;97404.56;;;7.82;93.21
38912;BME280;28444;48.056;14.408;2023-04-20T08:53:41;97414.00;;;7.81;92.98
38912;BME280;28444;48.056;14.408;2023-04-20T08:56:39;97407.81;;;7.95;93.44
38912;BME280;28444;48.056;14.408;2023-04-20T08:59:26;97411.25;;;8.04;93.46
38912;BME280;28444;48.056;14.408;2023-04-20T09:02:14;97412.44;;;8.26;90.70
38912;BME280;28444;48.056;14.408;2023-04-20T09:05:04;97397.34;;;8.40;91.15
38912;BME280;28444;48.056;14.408;2023-04-20T09:07:57;97395.66;;;8.52;91.36
38912;BME280;28444;48.056;14.408;2023-04-20T09:10:45;97390.28;;;8.77;91.36
38912;BME280;28444;48.056;14.408;2023-04-20T09:13:32;97400.75;;;8.88;87.93
38912;BME280;28444;48.056;14.408;2023-04-20T09:16:19;97393.34;;;8.81;88.50
38912;BME280;28444;48.056;14.408;2023-04-20T09:19:06;97384.69;;;9.00;89.83
38912;BME280;28444;48.056;14.408;2023-04-20T09:21:58;97383.56;;;9.28;87.31
38912;BME280;28444;48.056;14.408;2023-04-20T09:24:46;97381.88;;;9.15;88.23
38912;BME280;28444;48.056;14.408;2023-04-20T09:27:33;97381.16;;;9.15;88.04
38912;BME280;28444;48.056;14.408;2023-04-20T09:30:21;97369.16;;;9.35;89.01
38912;BME280;28444;48.056;14.408;2023-04-20T09:33:08;97371.22;;;9.52;87.66
38912;BME280;28444;48.056;14.408;2023-04-20T09:36:03;97364.69;;;9.48;88.01
38912;BME280;28444;48.056;14.408;2023-04-20T09:39:23;97360.38;;;9.62;87.74
38912;BME280;28444;48.056;14.408;2023-04-20T09:42:12;97363.09;;;9.45;88.30
38912;BME280;28444;48.056;14.408;2023-04-20T09:45:00;97355.22;;;9.49;88.10
38912;BME280;28444;48.056;14.408;2023-04-20T09:47:47;97361.72;;;9.53;87.53
38912;BME280;28444;48.056;14.408;2023-04-20T09:50:37;97360.44;;;9.37;87.93
38912;BME280;28444;48.056;14.408;2023-04-20T09:53:36;97358.44;;;9.55;87.43
38912;BME280;28444;48.056;14.408;2023-04-20T09:56:25;97359.63;;;9.44;87.86
38912;BME280;28444;48.056;14.408;2023-04-20T09:59:12;97349.13;;;9.40;88.48
38912;BME280;28444;48.056;14.408;2023-04-20T10:01:59;97345.53;;;9.55;88.22
38912;BME280;28444;48.056;14.408;2023-04-20T10:04:59;97341.44;;;9.64;87.68
38912;BME280;28444;48.056;14.408;2023-04-20T10:07:58;97336.69;;;9.64;88.26
38912;BME280;28444;48.056;14.408;2023-04-20T10:10:48;97340.47;;;9.86;88.88
38912;BME280;28444;48.056;14.408;2023-04-20T10:13:36;97339.94;;;9.88;87.49
38912;BME280;28444;48.056;14.408;2023-04-20T10:16:24;97341.19;;;10.22;87.99
38912;BME280;28444;48.056;14.408;2023-04-20T10:19:12;97328.66;;;10.36;86.58
38912;BME280;28444;48.056;14.408;2023-04-20T10:21:59;97328.03;;;10.55;86.64
38912;BME280;28444;48.056;14.408;2023-04-20T10:24:46;97323.69;;;10.52;84.75
38912;BME280;28444;48.056;14.408;2023-04-20T10:27:33;97322.66;;;10.47;85.69
38912;BME280;28444;48.056;14.408;2023-04-20T10:30:20;97312.72;;;10.42;86.82
38912;BME280;28444;48.056;14.408;2023-04-20T10:33:11;97313.88;;;10.49;87.68
38912;BME280;28444;48.056;14.408;2023-04-20T10:35:59;97307.13;;;10.77;86.76
38912;BME280;28444;48.056;14.408;2023-04-20T10:38:46;97304.63;;;10.98;84.84
38912;BME280;28444;48.056;14.408;2023-04-20T10:41:32;97298.13;;;11.03;85.63
38912;BME280;28444;48.056;14.408;2023-04-20T10:44:20;97288.97;;;11.18;85.51
38912;BME280;28444;48.056;14.408;2023-04-20T10:47:07;97289.72;;;11.28;83.43
38912;BME280;28444;48.056;14.408;2023-04-20T10:50:07;97276.88;;;11.21;83.42
38912;BME280;28444;48.056;14.408;2023-04-20T10:52:54;97272.84;;;11.22;83.72
38912;BME280;28444;48.056;14.408;2023-04-20T10:55:42;97270.47;;;10.90;83.99
38912;BME280;28444;48.056;14.408;2023-04-20T10:58:28;97274.97;;;11.04;85.30
38912;BME280;28444;48.056;14.408;2023-04-20T11:01:15;97265.03;;;11.09;85.89
38912;BME280;28444;48.056;14.408;2023-04-20T11:04:03;97269.66;;;11.16;86.23
38912;BME280;28444;48.056;14.408;2023-04-20T11:06:50;97256.97;;;11.01;86.33
38912;BME280;28444;48.056;14.408;2023-04-20T11:09:37;97271.19;;;11.00;86.62
38912;BME280;28444;48.056;14.408;2023-04-20T11:12:24;97258.84;;;11.08;87.01
38912;BME280;28444;48.056;14.408;2023-04-20T11:15:11;97261.31;;;11.14;86.02
38912;BME280;28444;48.056;14.408;2023-04-20T11:18:10;97259.13;;;11.03;86.32
38912;BME280;28444;48.056;14.408;2023-04-20T11:20:57;97246.47;;;11.07;86.90
38912;BME280;28444;48.056;14.408;2023-04-20T11:23:44;97253.38;;;11.18;87.16
38912;BME280;28444;48.056;14.408;2023-04-20T11:26:38;97256.56;;;11.24;86.78
38912;BME280;28444;48.056;14.408;2023-04-20T11:29:31;97246.38;;;11.35;85.79
38912;BME280;28444;48.056;14.408;2023-04-20T11:32:19;97250.53;;;11.26;85.20
38912;BME280;28444;48.056;14.408;2023-04-20T11:35:08;97241.59;;;11.25;86.47
38912;BME280;28444;48.056;14.408;2023-04-20T11:37:56;97243.19;;;11.19;86.88
38912;BME280;28444;48.056;14.408;2023-04-20T11:40:44;97253.84;;;11.24;86.55
38912;BME280;28444;48.056;14.408;2023-04-20T11:43:33;97254.81;;;11.09;87.23
38912;BME280;28444;48.056;14.408;2023-04-20T11:46:20;97246.22;;;11.23;87.07
38912;BME280;28444;48.056;14.408;2023-04-20T11:49:07;97236.56;;;11.41;87.68
38912;BME280;28444;48.056;14.408;2023-04-20T11:51:54;97247.25;;;11.66;86.82
38912;BME280;28444;48.056;14.408;2023-04-20T11:54:41;97245.66;;;11.73;86.32
38912;BME280;28444;48.056;14.408;2023-04-20T11:57:28;97247.97;;;11.86;85.09
38912;BME280;28444;48.056;14.408;2023-04-20T12:00:15;97250.13;;;11.97;85.92
38912;BME280;28444;48.056;14.408;2023-04-20T12:03:03;97248.69;;;12.06;85.29
38912;BME280;28444;48.056;14.408;2023-04-20T12:05:51;97243.88;;;12.16;85.12
38912;BME280;28444;48.056;14.408;2023-04-20T12:08:38;97242.28;;;12.23;84.58
38912;BME280;28444;48.056;14.408;2023-04-20T12:11:25;97244.13;;;12.30;84.95
38912;BME280;28444;48.056;14.408;2023-04-20T12:14:12;97242.06;;;12.50;84.79
38912;BME280;28444;48.056;14.408;2023-04-20T12:17:03;97252.44;;;12.51;84.53
38912;BME280;28444;48.056;14.408;2023-04-20T12:19:50;97238.59;;;12.49;85.46
38912;BME280;28444;48.056;14.408;2023-04-20T12:22:38;97234.38;;;12.58;85.17
38912;BME280;28444;48.056;14.408;2023-04-20T12:25:25;97235.06;;;12.68;83.75
38912;BME280;28444;48.056;14.408;2023-04-20T12:28:12;97232.78;;;12.65;83.69
38912;BME280;28444;48.056;14.408;2023-04-20T12:30:59;97228.94;;;12.80;83.18
38912;BME280;28444;48.056;14.408;2023-04-20T12:33:48;97219.47;;;12.92;82.96
38912;BME280;28444;48.056;14.408;2023-04-20T12:36:35;97229.03;;;12.91;83.30
38912;BME280;28444;48.056;14.408;2023-04-20T12:39:22;97226.28;;;12.91;82.16
38912;BME280;28444;48.056;14.408;2023-04-20T12:42:09;97228.03;;;12.87;82.85
38912;BME280;28444;48.056;14.408;2023-04-20T12:44:56;97219.41;;;12.81;83.67
38912;BME280;28444;48.056;14.408;2023-04-20T12:47:43;97226.06;;;12.77;84.44
38912;BME280;28444;48.056;14.408;2023-04-20T12:50:30;97226.78;;;12.78;85.00
38912;BME280;28444;48.056;14.408;2023-04-20T12:53:18;97215.50;;;12.84;83.48
38912;BME280;28444;48.056;14.408;2023-04-20T12:56:06;97217.38;;;12.81;83.72
38912;BME280;28444;48.056;14.408;2023-04-20T12:58:53;97220.13;;;12.81;85.06
38912;BME280;28444;48.056;14.408;2023-04-20T13:01:40;97213.47;;;12.84;85.49
38912;BME280;28444;48.056;14.408;2023-04-20T13:04:27;97210.03;;;12.74;85.22
38912;BME280;28444;48.056;14.408;2023-04-20T13:07:15;97205.69;;;12.81;84.70
38912;BME280;28444;48.056;14.408;2023-04-20T13:10:02;97202.38;;;12.82;84.65
38912;BME280;28444;48.056;14.408;2023-04-20T13:12:49;97197.72;;;12.85;85.14
38912;BME280;28444;48.056;14.408;2023-04-20T13:15:39;97193.59;;;12.95;84.78
38912;BME280;28444;48.056;14.408;2023-04-20T13:18:27;97185.63;;;12.99;85.01
38912;BME280;28444;48.056;14.408;2023-04-20T13:21:14;97190.22;;;13.07;84.68
38912;BME280;28444;48.056;14.408;2023-04-20T13:24:01;97187.66;;;13.20;84.63
38912;BME280;28444;48.056;14.408;2023-04-20T13:26:52;97188.84;;;13.17;83.75
38912;BME280;28444;48.056;14.408;2023-04-20T13:29:42;97186.31;;;13.31;84.35
38912;BME280;28444;48.056;14.408;2023-04-20T13:32:29;97175.00;;;13.37;84.30
38912;BME280;28444;48.056;14.408;2023-04-20T13:35:17;97174.75;;;13.33;83.46
38912;BME280;28444;48.056;14.408;2023-04-20T13:38:04;97185.38;;;13.38;83.30
38912;BME280;28444;48.056;14.408;2023-04-20T13:40:51;97170.22;;;13.37;83.53
38912;BME280;28444;48.056;14.408;2023-04-20T13:43:38;97173.03;;;13.49;82.88
38912;BME280;28444;48.056;14.408;2023-04-20T13:46:25;97168.69;;;13.46;83.53
38912;BME280;28444;48.056;14.408;2023-04-20T13:49:12;97177.41;;;13.42;83.82
38912;BME280;28444;48.056;14.408;2023-04-20T13:51:59;97165.16;;;13.55;83.41
38912;BME280;28444;48.056;14.408;2023-04-20T13:54:46;97170.66;;;13.55;82.89
38912;BME280;28444;48.056;14.408;2023-04-20T13:57:33;97167.34;;;13.68;82.68
38912;BME280;28444;48.056;14.408;2023-04-20T14:00:20;97167.69;;;13.63;81.42
38912;BME280;28444;48.056;14.408;2023-04-20T14:03:09;97169.25;;;13.66;82.31
38912;BME280;28444;48.056;14.408;2023-04-20T14:05:56;97163.31;;;13.69;81.72
38912;BME280;28444;48.056;14.408;2023-04-20T14:08:43;97161.91;;;13.80;81.82
38912;BME280;28444;48.056;14.408;2023-04-20T14:11:30;97161.19;;;13.91;82.08
38912;BME280;28444;48.056;14.408;2023-04-20T14:14:17;97163.47;;;13.95;81.53
38912;BME280;28444;48.056;14.408;2023-04-20T14:17:05;97161.31;;;13.93;80.40
38912;BME280;28444;48.056;14.408;2023-04-20T14:19:51;97149.97;;;13.99;79.93
38912;BME280;28444;48.056;14.408;2023-04-20T14:22:38;97159.53;;;13.98;80.22
38912;BME280;28444;48.056;14.408;2023-04-20T14:25:25;97152.59;;;13.97;80.82
38912;BME280;28444;48.056;14.408;2023-04-20T14:28:13;97150.09;;;14.01;80.37
38912;BME280;28444;48.056;14.408;2023-04-20T14:31:02;97158.09;;;13.97;80.66
38912;BME280;28444;48.056;14.408;2023-04-20T14:33:49;97152.50;;;13.95;80.85
38912;BME280;28444;48.056;14.408;2023-04-20T14:36:36;97155.00;;;13.91;81.02
38912;BME280;28444;48.056;14.408;2023-04-20T14:39:23;97150.81;;;14.02;80.95